createdAt,value
2022-08-17T00:01:56.528Z,9.17
2022-08-17T00:04:58.289Z,8.40
2022-08-17T00:08:00.006Z,9.10
2022-08-17T00:11:02.269Z,9.10
2022-08-17T00:14:14.943Z,8.43
2022-08-17T00:17:16.576Z,8.80
2022-08-17T00:20:18.985Z,8.67
2022-08-17T00:23:25.495Z,8.97
2022-08-17T00:26:44.303Z,8.50
2022-08-17T00:29:47.204Z,8.30
2022-08-17T00:33:11.854Z,8.10
2022-08-17T00:36:11.887Z,8.60
2022-08-17T00:39:13.556Z,8.27
2022-08-17T00:42:16.157Z,8.87
2022-08-17T00:45:18.274Z,8.23
2022-08-17T00:48:27.246Z,8.30
2022-08-17T00:51:34.432Z,8.23
2022-08-17T00:54:40.966Z,8.17
2022-08-17T00:57:46.852Z,7.87
2022-08-17T01:00:49.633Z,8.27
2022-08-17T01:03:52.701Z,8.20
2022-08-17T01:06:59.019Z,8.87
2022-08-17T01:10:01.495Z,8.70
2022-08-17T01:13:03.853Z,8.40
2022-08-17T01:16:11.706Z,7.97
2022-08-17T01:19:18.295Z,8.13
2022-08-17T01:22:20.028Z,8.13
2022-08-17T01:25:22.367Z,8.57
2022-08-17T01:28:53.161Z,8.27
2022-08-17T01:31:51.283Z,8.37
2022-08-17T01:34:53.638Z,7.83
2022-08-17T01:37:55.237Z,8.47
2022-08-17T01:41:00.146Z,8.60
2022-08-17T01:44:04.203Z,8.63
2022-08-17T01:47:05.966Z,8.80
2022-08-17T01:50:09.633Z,8.67
2022-08-17T01:53:14.115Z,8.40
2022-08-17T01:56:17.986Z,8.53
2022-08-17T01:59:20.012Z,8.77
2022-08-17T02:02:30.447Z,8.90
2022-08-17T02:05:33.175Z,8.30
2022-08-17T02:08:39.576Z,8.60
2022-08-17T02:11:58.606Z,8.43
2022-08-17T02:15:00.221Z,8.30
2022-08-17T02:18:02.967Z,8.37
2022-08-17T02:21:05.091Z,8.70
2022-08-17T02:24:08.598Z,8.73
2022-08-17T02:27:10.329Z,8.43
2022-08-17T02:30:59.177Z,7.53
2022-08-17T02:33:42.259Z,7.90
2022-08-17T02:36:44.980Z,8.57
2022-08-17T02:39:46.637Z,8.10
2022-08-17T02:42:49.108Z,8.53
2022-08-17T02:45:51.490Z,8.20
2022-08-17T02:48:54.239Z,8.47
2022-08-17T02:51:57.217Z,8.50
2022-08-17T02:54:58.946Z,8.10
2022-08-17T02:58:00.634Z,8.90
2022-08-17T03:01:03.351Z,8.53
2022-08-17T03:04:05.145Z,7.83
2022-08-17T03:07:06.751Z,8.27
2022-08-17T03:10:09.203Z,8.13
2022-08-17T03:13:13.329Z,8.20
2022-08-17T03:16:15.125Z,7.73
2022-08-17T03:19:16.821Z,7.80
2022-08-17T03:22:35.922Z,7.63
2022-08-17T03:25:44.166Z,8.70
2022-08-17T03:28:45.942Z,7.47
2022-08-17T03:31:48.072Z,8.10
2022-08-17T03:34:49.862Z,9.33
2022-08-17T03:38:00.053Z,8.40
2022-08-17T03:41:04.926Z,8.00
2022-08-17T03:44:06.746Z,7.77
2022-08-17T03:47:27.120Z,7.60
2022-08-17T03:50:47.435Z,8.30
2022-08-17T03:54:11.601Z,8.53
2022-08-17T03:57:13.746Z,9.57
2022-08-17T04:00:15.656Z,7.90
2022-08-17T04:03:17.968Z,7.90
2022-08-17T04:06:20.626Z,9.17
2022-08-17T04:09:22.348Z,8.80
2022-08-17T04:12:24.578Z,8.63
2022-08-17T04:15:26.437Z,7.97
2022-08-17T04:18:28.045Z,8.10
2022-08-17T04:21:29.697Z,7.57
2022-08-17T04:24:32.136Z,7.90
2022-08-17T04:27:33.968Z,8.00
2022-08-17T04:30:36.528Z,8.17
2022-08-17T04:33:38.889Z,8.03
2022-08-17T04:36:40.502Z,7.40
2022-08-17T04:40:12.102Z,8.17
2022-08-17T04:43:15.359Z,7.73
2022-08-17T04:46:22.476Z,7.60
2022-08-17T04:49:24.147Z,8.23
2022-08-17T04:52:32.338Z,8.80
2022-08-17T04:55:45.496Z,8.53
2022-08-17T04:58:49.888Z,8.53
2022-08-17T05:01:52.328Z,8.23
2022-08-17T05:04:54.052Z,7.70
2022-08-17T05:07:58.695Z,8.37
2022-08-17T05:11:00.469Z,7.50
2022-08-17T05:14:02.158Z,8.10
2022-08-17T05:17:09.374Z,8.10
2022-08-17T05:20:13.078Z,7.53
2022-08-17T05:23:15.761Z,8.10
2022-08-17T05:26:25.980Z,7.40
2022-08-17T05:29:35.498Z,8.30
2022-08-17T05:32:40.374Z,9.07
2022-08-17T05:35:44.643Z,8.00
2022-08-17T05:38:46.298Z,7.10
2022-08-17T05:41:48.269Z,7.23
2022-08-17T05:44:49.978Z,6.60
2022-08-17T05:47:51.712Z,7.57
2022-08-17T05:51:02.968Z,7.53
2022-08-17T05:54:08.026Z,7.87
2022-08-17T05:57:28.663Z,7.83
2022-08-17T06:00:36.452Z,7.30
2022-08-17T06:03:46.595Z,8.97
2022-08-17T06:06:51.365Z,8.03
2022-08-17T06:10:08.343Z,9.50
2022-08-17T06:13:16.843Z,8.23
2022-08-17T06:16:28.172Z,7.30
2022-08-17T06:19:40.834Z,6.32
2022-08-17T06:22:44.985Z,5.63
2022-08-17T06:25:49.523Z,5.53
2022-08-17T06:29:00.309Z,5.22
2022-08-17T06:32:02.696Z,6.05
2022-08-17T06:35:07.091Z,5.28
2022-08-17T06:38:37.887Z,9.23
2022-08-17T06:41:43.624Z,5.35
2022-08-17T06:44:57.635Z,5.97
2022-08-17T06:48:07.144Z,5.43
2022-08-17T06:51:14.813Z,5.88
2022-08-17T06:54:16.426Z,5.25
2022-08-17T06:57:19.633Z,24.83
2022-08-17T07:00:26.785Z,5.50
2022-08-17T07:03:37.862Z,6.70
2022-08-17T07:06:39.780Z,5.68
2022-08-17T07:09:41.427Z,6.35
2022-08-17T07:12:44.020Z,7.18
2022-08-17T07:15:47.429Z,5.90
2022-08-17T07:18:53.177Z,5.25
2022-08-17T07:22:02.688Z,5.70
2022-08-17T07:25:06.144Z,6.20
2022-08-17T07:28:07.906Z,5.25
2022-08-17T07:31:13.340Z,5.43
2022-08-17T07:34:15.233Z,5.28
2022-08-17T07:37:18.845Z,5.68
2022-08-17T07:40:22.719Z,5.60
2022-08-17T07:43:25.579Z,4.93
2022-08-17T07:46:53.731Z,5.32
2022-08-17T07:49:55.495Z,5.20
2022-08-17T07:52:59.252Z,5.10
2022-08-17T07:56:00.875Z,4.95
2022-08-17T07:59:33.246Z,5.47
2022-08-17T08:02:40.333Z,4.90
2022-08-17T08:05:54.432Z,5.15
2022-08-17T08:08:56.499Z,4.60
2022-08-17T08:12:00.259Z,4.50
2022-08-17T08:15:01.882Z,4.65
2022-08-17T08:18:05.256Z,4.30
2022-08-17T08:21:10.118Z,4.90
2022-08-17T08:24:31.276Z,4.53
2022-08-17T08:27:43.786Z,4.82
2022-08-17T08:30:49.267Z,4.45
2022-08-17T08:34:49.717Z,4.55
2022-08-17T08:37:44.812Z,4.35
2022-08-17T08:40:57.784Z,4.30
2022-08-17T08:44:18.223Z,4.05
2022-08-17T08:47:20.514Z,3.90
2022-08-17T08:50:37.839Z,4.40
2022-08-17T08:53:46.153Z,4.47
2022-08-17T08:57:21.595Z,4.78
2022-08-17T09:00:17.429Z,4.43
2022-08-17T09:03:42.559Z,3.88
2022-08-17T09:06:51.094Z,4.35
2022-08-17T09:10:19.582Z,4.32
2022-08-17T09:13:41.478Z,4.40
2022-08-17T09:16:58.174Z,4.18
2022-08-17T09:20:04.013Z,4.38
2022-08-17T09:23:08.926Z,4.10
2022-08-17T09:26:17.379Z,4.30
2022-08-17T09:29:24.445Z,4.10
2022-08-17T09:32:38.426Z,4.82
2022-08-17T09:35:44.603Z,4.25
2022-08-17T09:39:05.045Z,4.85
2022-08-17T09:42:10.559Z,4.72
2022-08-17T09:45:24.590Z,4.47
2022-08-17T09:48:28.630Z,4.60
2022-08-17T09:51:43.755Z,4.72
2022-08-17T09:54:46.058Z,4.40
2022-08-17T09:58:07.929Z,4.30
2022-08-17T10:01:16.625Z,4.60
2022-08-17T10:04:20.377Z,5.47
2022-08-17T10:07:35.739Z,4.55
2022-08-17T10:10:52.417Z,4.10
2022-08-17T10:14:35.972Z,4.30
2022-08-17T10:17:28.943Z,4.20
2022-08-17T10:20:49.417Z,4.00
2022-08-17T10:24:13.156Z,4.43
2022-08-17T10:27:16.184Z,4.75
2022-08-17T10:30:19.958Z,4.35
2022-08-17T10:33:24.313Z,4.03
2022-08-17T10:36:41.491Z,5.03
2022-08-17T10:39:52.070Z,4.70
2022-08-17T10:43:02.373Z,4.63
2022-08-17T10:46:30.227Z,4.70
2022-08-17T10:49:35.209Z,3.97
2022-08-17T10:52:40.432Z,4.53
2022-08-17T10:56:02.033Z,4.32
2022-08-17T10:59:03.695Z,4.35
2022-08-17T11:02:12.301Z,4.43
2022-08-17T11:05:27.592Z,4.93
2022-08-17T11:08:29.204Z,4.20
2022-08-17T11:11:45.447Z,4.53
2022-08-17T11:14:50.242Z,5.05
2022-08-17T11:18:01.993Z,4.18
2022-08-17T11:21:30.529Z,4.53
2022-08-17T11:24:40.473Z,4.03
2022-08-17T11:27:53.909Z,4.32
2022-08-17T11:31:01.739Z,4.10
2022-08-17T11:34:06.780Z,4.60
2022-08-17T11:37:26.562Z,4.45
2022-08-17T11:40:37.467Z,4.13
2022-08-17T11:43:56.022Z,4.28
2022-08-17T11:47:19.364Z,3.95
2022-08-17T11:51:18.371Z,3.90
2022-08-17T11:54:38.573Z,4.00
2022-08-17T11:57:40.175Z,4.25
2022-08-17T12:00:44.847Z,3.80
2022-08-17T12:03:55.325Z,4.00
2022-08-17T12:06:59.734Z,4.88
2022-08-17T12:10:01.520Z,3.92
2022-08-17T12:13:10.275Z,4.32
2022-08-17T12:16:19.557Z,4.07
2022-08-17T12:19:23.769Z,3.97
2022-08-17T12:22:32.960Z,4.25
2022-08-17T12:25:40.923Z,4.43
2022-08-17T12:28:50.265Z,4.63
2022-08-17T12:31:53.880Z,4.43
2022-08-17T12:34:55.892Z,4.30
2022-08-17T12:37:57.975Z,4.85
2022-08-17T12:40:59.895Z,4.32
2022-08-17T12:44:09.598Z,4.28
2022-08-17T12:47:21.796Z,4.32
2022-08-17T12:50:29.772Z,4.40
2022-08-17T12:53:32.734Z,4.25
2022-08-17T12:56:34.382Z,4.20
2022-08-17T12:59:40.131Z,3.95
2022-08-17T13:02:45.580Z,4.50
2022-08-17T13:05:58.407Z,4.38
2022-08-17T13:09:11.480Z,3.83
2022-08-17T13:12:13.174Z,3.83
2022-08-17T13:15:44.399Z,3.90
2022-08-17T13:18:48.243Z,4.40
2022-08-17T13:21:51.613Z,3.83
2022-08-17T13:24:55.919Z,3.92
2022-08-17T13:27:57.773Z,3.88
2022-08-17T13:31:18.414Z,3.78
2022-08-17T13:34:33.393Z,4.03
2022-08-17T13:37:36.335Z,4.05
2022-08-17T13:40:41.793Z,4.28
2022-08-17T13:43:45.251Z,4.07
2022-08-17T13:46:50.594Z,3.75
2022-08-17T13:49:58.704Z,3.75
2022-08-17T13:53:00.434Z,4.40
2022-08-17T13:56:02.079Z,3.83
2022-08-17T13:59:09.014Z,3.60
2022-08-17T14:02:11.552Z,4.25
2022-08-17T14:05:13.259Z,3.92
2022-08-17T14:08:16.487Z,4.30
2022-08-17T14:11:18.454Z,4.07
2022-08-17T14:14:23.312Z,3.60
2022-08-17T14:17:25.784Z,3.70
2022-08-17T14:20:27.569Z,3.90
2022-08-17T14:23:32.044Z,3.83
2022-08-17T14:26:33.719Z,4.13
2022-08-17T14:29:35.469Z,3.60
2022-08-17T14:32:37.830Z,3.67
2022-08-17T14:35:39.599Z,3.47
2022-08-17T14:38:41.307Z,3.35
2022-08-17T14:41:43.439Z,3.75
2022-08-17T14:44:45.098Z,3.50
2022-08-17T14:47:46.866Z,3.20
2022-08-17T14:50:48.604Z,3.72
2022-08-17T14:53:50.438Z,3.38
2022-08-17T14:57:02.837Z,3.50
2022-08-17T15:00:14.437Z,3.70
2022-08-17T15:03:16.461Z,3.35
2022-08-17T15:06:18.227Z,3.83
2022-08-17T15:09:19.863Z,3.85
2022-08-17T15:12:23.010Z,3.65
2022-08-17T15:15:24.913Z,3.50
2022-08-17T15:18:26.836Z,3.78
2022-08-17T15:21:28.776Z,3.30
2022-08-17T15:24:30.452Z,3.50
2022-08-17T15:27:32.734Z,3.30
2022-08-17T15:30:35.365Z,3.83
2022-08-17T15:33:37.049Z,3.00
2022-08-17T15:36:41.413Z,3.58
2022-08-17T15:39:51.917Z,3.17
2022-08-17T15:42:54.109Z,4.00
2022-08-17T15:46:19.085Z,3.00
2022-08-17T15:49:23.373Z,4.13
2022-08-17T15:52:26.591Z,3.00
2022-08-17T15:55:29.476Z,3.42
2022-08-17T15:58:34.101Z,3.50
2022-08-17T16:03:01.961Z,3.97
2022-08-17T16:05:05.083Z,6.40
2022-08-17T16:08:14.836Z,15.82
2022-08-17T16:11:20.904Z,7.80
2022-08-17T16:14:23.182Z,4.15
2022-08-17T16:17:38.555Z,3.63
2022-08-17T16:20:42.920Z,3.33
2022-08-17T16:23:44.697Z,3.47
2022-08-17T16:26:46.364Z,3.28
2022-08-17T16:29:48.558Z,3.38
2022-08-17T16:33:01.517Z,3.40
2022-08-17T16:36:18.281Z,3.33
2022-08-17T16:39:20.262Z,3.58
2022-08-17T16:42:27.264Z,3.15
2022-08-17T16:45:40.545Z,3.30
2022-08-17T16:48:46.607Z,3.70
2022-08-17T16:51:53.597Z,3.15
2022-08-17T16:55:04.095Z,3.50
2022-08-17T16:58:11.564Z,3.50
2022-08-17T17:01:18.990Z,3.45
2022-08-17T17:04:23.642Z,3.63
2022-08-17T17:07:40.805Z,3.38
2022-08-17T17:10:56.114Z,4.00
2022-08-17T17:14:05.217Z,3.42
2022-08-17T17:17:24.618Z,4.60
2022-08-17T17:20:33.275Z,7.00
2022-08-17T17:23:49.390Z,5.97
2022-08-17T17:26:51.459Z,4.53
2022-08-17T17:30:02.131Z,4.63
2022-08-17T17:33:07.604Z,4.22
2022-08-17T17:36:35.569Z,4.35
2022-08-17T17:39:43.541Z,7.53
2022-08-17T17:42:46.668Z,4.68
2022-08-17T17:46:27.293Z,4.43
2022-08-17T17:49:34.182Z,4.72
2022-08-17T17:52:38.840Z,4.35
2022-08-17T17:55:47.238Z,5.20
2022-08-17T17:58:55.473Z,4.35
2022-08-17T18:02:00.304Z,4.53
2022-08-17T18:05:04.554Z,4.77
2022-08-17T18:08:12.299Z,4.35
2022-08-17T18:11:35.198Z,4.70
2022-08-17T18:14:49.297Z,4.43
2022-08-17T18:18:03.006Z,4.50
2022-08-17T18:21:15.574Z,4.23
2022-08-17T18:24:28.005Z,4.23
2022-08-17T18:27:34.789Z,4.13
2022-08-17T18:30:36.423Z,3.87
2022-08-17T18:33:39.637Z,3.87
2022-08-17T18:36:41.277Z,4.33
2022-08-17T18:39:42.931Z,4.10
2022-08-17T18:42:55.048Z,4.40
2022-08-17T18:45:57.404Z,4.33
2022-08-17T18:49:18.943Z,3.93
2022-08-17T18:52:23.744Z,4.30
2022-08-17T18:55:29.287Z,4.47
2022-08-17T18:58:30.916Z,4.40
2022-08-17T19:01:52.250Z,4.30
2022-08-17T19:05:22.668Z,4.70
2022-08-17T19:08:30.430Z,4.17
2022-08-17T19:11:34.071Z,4.43
2022-08-17T19:14:35.912Z,4.50
2022-08-17T19:17:43.743Z,4.23
2022-08-17T19:20:53.892Z,4.87
2022-08-17T19:23:58.920Z,3.90
2022-08-17T19:27:06.630Z,4.00
2022-08-17T19:30:11.976Z,4.50
2022-08-17T19:33:13.642Z,4.77
2022-08-17T19:36:15.971Z,4.53
2022-08-17T19:39:38.302Z,4.60
2022-08-17T19:42:42.533Z,4.30
2022-08-17T19:45:51.930Z,4.53
2022-08-17T19:49:03.808Z,4.10
2022-08-17T19:52:20.733Z,4.20
2022-08-17T19:55:34.324Z,3.93
2022-08-17T19:58:44.801Z,3.97
2022-08-17T20:01:50.555Z,4.37
2022-08-17T20:04:53.641Z,4.40
2022-08-17T20:07:58.133Z,4.13
2022-08-17T20:11:03.184Z,4.40
2022-08-17T20:14:06.952Z,4.03
2022-08-17T20:17:09.725Z,4.33
2022-08-17T20:20:24.340Z,4.03
2022-08-17T20:23:29.105Z,4.80
2022-08-17T20:26:55.302Z,4.50
2022-08-17T20:30:06.677Z,4.70
2022-08-17T20:33:23.679Z,4.80
2022-08-17T20:36:26.250Z,4.67
2022-08-17T20:39:38.065Z,4.60
2022-08-17T20:42:39.929Z,4.83
2022-08-17T20:45:46.401Z,4.50
2022-08-17T20:48:49.882Z,4.40
2022-08-17T20:52:00.600Z,4.80
2022-08-17T20:55:04.551Z,5.10
2022-08-17T20:58:15.085Z,5.00
2022-08-17T21:01:24.307Z,5.20
2022-08-17T21:04:44.856Z,5.40
2022-08-17T21:07:54.584Z,5.00
2022-08-17T21:10:57.377Z,5.57
2022-08-17T21:14:09.778Z,5.83
2022-08-17T21:17:14.955Z,6.57
2022-08-17T21:20:32.479Z,5.50
2022-08-17T21:23:40.363Z,6.13
2022-08-17T21:26:52.011Z,6.43
2022-08-17T21:30:13.681Z,6.07
2022-08-17T21:33:21.245Z,6.80
2022-08-17T21:36:24.166Z,6.53
2022-08-17T21:39:33.343Z,6.30
2022-08-17T21:42:38.340Z,6.13
2022-08-17T21:45:41.679Z,6.47
2022-08-17T21:48:44.983Z,6.80
2022-08-17T21:51:51.464Z,6.30
2022-08-17T21:54:58.196Z,6.60
2022-08-17T21:58:14.537Z,6.53
2022-08-17T22:01:25.280Z,6.40
2022-08-17T22:04:31.613Z,7.10
2022-08-17T22:07:39.463Z,6.77
2022-08-17T22:10:42.958Z,6.90
2022-08-17T22:13:45.433Z,6.30
2022-08-17T22:16:47.332Z,7.33
2022-08-17T22:20:01.480Z,6.27
2022-08-17T22:23:29.923Z,7.20
2022-08-17T22:26:50.496Z,7.00
2022-08-17T22:29:57.632Z,6.70
2022-08-17T22:33:00.448Z,6.47
2022-08-17T22:36:11.244Z,6.33
2022-08-17T22:39:13.426Z,6.63
2022-08-17T22:42:15.457Z,6.77
2022-08-17T22:45:17.185Z,6.70
2022-08-17T22:48:23.358Z,6.47
2022-08-17T22:51:30.444Z,6.87
2022-08-17T22:54:50.564Z,7.23
2022-08-17T22:58:10.898Z,6.83
2022-08-17T23:01:29.738Z,7.00
2022-08-17T23:04:33.345Z,6.50
2022-08-17T23:07:34.957Z,6.70
2022-08-17T23:10:37.441Z,7.07
2022-08-17T23:13:39.099Z,7.00
2022-08-17T23:16:43.621Z,7.17
2022-08-17T23:19:45.326Z,6.77
2022-08-17T23:22:51.748Z,6.67
2022-08-17T23:25:54.766Z,7.23
2022-08-17T23:28:56.569Z,6.93
2022-08-17T23:32:00.052Z,7.03
2022-08-17T23:35:01.822Z,7.07
2022-08-17T23:38:03.490Z,7.20
2022-08-17T23:41:11.760Z,7.50
2022-08-17T23:44:14.559Z,7.47
2022-08-17T23:47:16.266Z,7.20
2022-08-17T23:50:18.414Z,8.10
2022-08-17T23:53:20.575Z,7.70
2022-08-17T23:56:28.120Z,7.67
2022-08-17T23:59:29.746Z,7.67
